sensor_id;sensor_type;location;lat;lon;timestamp;temperature;humidity
44565;DHT22;30275;51.822;-0.326;2022-12-16T00:00:03;-3.50;99.90
44565;DHT22;30275;51.822;-0.326;2022-12-16T00:02:29;-3.50;99.90
44565;DHT22;30275;51.822;-0.326;2022-12-16T00:04:54;-3.40;99.90
44565;DHT22;30275;51.822;-0.326;2022-12-16T00:07:22;-3.40;99.90
44565;DHT22;30275;51.822;-0.326;2022-12-16T00:09:48;-3.30;99.90
44565;DHT22;30275;51.822;-0.326;2022-12-16T00:12:13;-3.40;99.90
44565;DHT22;30275;51.822;-0.326;2022-12-16T00:14:39;-3.30;99.90
44565;DHT22;30275;51.822;-0.326;2022-12-16T00:17:05;-3.30;99.90
44565;DHT22;30275;51.822;-0.326;2022-12-16T00:19:30;-3.30;99.90
44565;DHT22;30275;51.822;-0.326;2022-12-16T00:21:56;-3.30;99.90
44565;DHT22;30275;51.822;-0.326;2022-12-16T00:24:22;-3.30;99.90
44565;DHT22;30275;51.822;-0.326;2022-12-16T00:26:48;-3.30;99.90
44565;DHT22;30275;51.822;-0.326;2022-12-16T00:29:13;-3.20;99.90
44565;DHT22;30275;51.822;-0.326;2022-12-16T00:31:39;-3.20;99.90
44565;DHT22;30275;51.822;-0.326;2022-12-16T00:34:05;-3.30;99.90
44565;DHT22;30275;51.822;-0.326;2022-12-16T00:36:30;-3.30;99.90
44565;DHT22;30275;51.822;-0.326;2022-12-16T00:38:56;-3.20;99.90
44565;DHT22;30275;51.822;-0.326;2022-12-16T00:41:22;-3.20;99.90
44565;DHT22;30275;51.822;-0.326;2022-12-16T00:43:47;-3.30;99.90
44565;DHT22;30275;51.822;-0.326;2022-12-16T00:46:13;-3.30;99.90
44565;DHT22;30275;51.822;-0.326;2022-12-16T00:48:39;-3.40;99.90
44565;DHT22;30275;51.822;-0.326;2022-12-16T00:51:04;-3.50;99.90
44565;DHT22;30275;51.822;-0.326;2022-12-16T00:53:30;-3.60;99.90
44565;DHT22;30275;51.822;-0.326;2022-12-16T00:56:10;-3.80;99.90
44565;DHT22;30275;51.822;-0.326;2022-12-16T00:58:37;-3.90;99.90
44565;DHT22;30275;51.822;-0.326;2022-12-16T01:01:03;-4.00;99.90
44565;DHT22;30275;51.822;-0.326;2022-12-16T01:03:29;-4.30;99.90
44565;DHT22;30275;51.822;-0.326;2022-12-16T01:05:55;-4.70;99.90
44565;DHT22;30275;51.822;-0.326;2022-12-16T01:08:21;-4.90;99.90
44565;DHT22;30275;51.822;-0.326;2022-12-16T01:10:56;-5.00;99.90
44565;DHT22;30275;51.822;-0.326;2022-12-16T01:13:23;-5.10;99.90
44565;DHT22;30275;51.822;-0.326;2022-12-16T01:15:49;-5.00;99.90
44565;DHT22;30275;51.822;-0.326;2022-12-16T01:18:15;-4.80;99.90
44565;DHT22;30275;51.822;-0.326;2022-12-16T01:20:41;-4.60;99.90
44565;DHT22;30275;51.822;-0.326;2022-12-16T01:23:07;-4.40;99.90
44565;DHT22;30275;51.822;-0.326;2022-12-16T01:25:33;-4.30;99.90
44565;DHT22;30275;51.822;-0.326;2022-12-16T01:27:58;-4.20;99.90
44565;DHT22;30275;51.822;-0.326;2022-12-16T01:30:24;-4.10;99.90
44565;DHT22;30275;51.822;-0.326;2022-12-16T01:32:50;-4.00;99.90
44565;DHT22;30275;51.822;-0.326;2022-12-16T01:35:18;-4.00;99.90
44565;DHT22;30275;51.822;-0.326;2022-12-16T01:37:43;-4.00;99.90
44565;DHT22;30275;51.822;-0.326;2022-12-16T01:40:18;-4.00;99.90
44565;DHT22;30275;51.822;-0.326;2022-12-16T01:42:44;-4.00;99.90
44565;DHT22;30275;51.822;-0.326;2022-12-16T01:45:31;-3.90;99.90
44565;DHT22;30275;51.822;-0.326;2022-12-16T01:48:02;-3.90;99.90
44565;DHT22;30275;51.822;-0.326;2022-12-16T01:50:31;-3.90;99.90
44565;DHT22;30275;51.822;-0.326;2022-12-16T01:52:59;-3.90;99.90
44565;DHT22;30275;51.822;-0.326;2022-12-16T01:55:32;-3.80;99.90
44565;DHT22;30275;51.822;-0.326;2022-12-16T01:58:12;-3.80;99.90
44565;DHT22;30275;51.822;-0.326;2022-12-16T02:00:40;-3.80;99.90
44565;DHT22;30275;51.822;-0.326;2022-12-16T02:03:07;-3.80;99.90
44565;DHT22;30275;51.822;-0.326;2022-12-16T02:05:37;-3.80;99.90
44565;DHT22;30275;51.822;-0.326;2022-12-16T02:08:15;-3.80;99.90
44565;DHT22;30275;51.822;-0.326;2022-12-16T02:13:27;-3.80;99.90
44565;DHT22;30275;51.822;-0.326;2022-12-16T02:16:14;-3.80;99.90
44565;DHT22;30275;51.822;-0.326;2022-12-16T02:19:01;-3.90;99.90
44565;DHT22;30275;51.822;-0.326;2022-12-16T02:27:19;-3.90;99.90
44565;DHT22;30275;51.822;-0.326;2022-12-16T02:38:31;-4.00;99.90
44565;DHT22;30275;51.822;-0.326;2022-12-16T02:41:04;-4.00;99.90
44565;DHT22;30275;51.822;-0.326;2022-12-16T02:45:59;-4.20;99.90
44565;DHT22;30275;51.822;-0.326;2022-12-16T02:48:25;-4.20;99.90
44565;DHT22;30275;51.822;-0.326;2022-12-16T02:50:51;-4.30;99.90
44565;DHT22;30275;51.822;-0.326;2022-12-16T02:53:20;-4.30;99.90
44565;DHT22;30275;51.822;-0.326;2022-12-16T03:04:26;-4.60;99.90
44565;DHT22;30275;51.822;-0.326;2022-12-16T03:06:55;-4.60;99.90
44565;DHT22;30275;51.822;-0.326;2022-12-16T03:09:25;-5.00;99.90
44565;DHT22;30275;51.822;-0.326;2022-12-16T03:11:54;-5.30;99.90
44565;DHT22;30275;51.822;-0.326;2022-12-16T03:14:22;-5.50;99.90
44565;DHT22;30275;51.822;-0.326;2022-12-16T03:16:50;-5.80;99.90
44565;DHT22;30275;51.822;-0.326;2022-12-16T03:19:16;-5.90;99.90
44565;DHT22;30275;51.822;-0.326;2022-12-16T03:22:03;-6.10;99.90
44565;DHT22;30275;51.822;-0.326;2022-12-16T03:24:31;-6.20;99.90
44565;DHT22;30275;51.822;-0.326;2022-12-16T03:30:11;-5.60;99.90
44565;DHT22;30275;51.822;-0.326;2022-12-16T03:32:58;-5.40;99.90
44565;DHT22;30275;51.822;-0.326;2022-12-16T03:35:42;-5.40;99.90
44565;DHT22;30275;51.822;-0.326;2022-12-16T03:38:10;-5.30;99.90
44565;DHT22;30275;51.822;-0.326;2022-12-16T03:40:38;-5.70;99.90
44565;DHT22;30275;51.822;-0.326;2022-12-16T03:43:06;-5.90;99.90
44565;DHT22;30275;51.822;-0.326;2022-12-16T03:45:36;-5.90;99.90
44565;DHT22;30275;51.822;-0.326;2022-12-16T03:48:05;-6.10;99.90
44565;DHT22;30275;51.822;-0.326;2022-12-16T03:50:33;-6.30;99.90
44565;DHT22;30275;51.822;-0.326;2022-12-16T03:52:59;-6.40;99.90
44565;DHT22;30275;51.822;-0.326;2022-12-16T03:55:25;-6.50;99.90
44565;DHT22;30275;51.822;-0.326;2022-12-16T03:57:51;-6.30;99.90
44565;DHT22;30275;51.822;-0.326;2022-12-16T04:00:17;-6.30;99.90
44565;DHT22;30275;51.822;-0.326;2022-12-16T04:02:42;-6.30;99.90
44565;DHT22;30275;51.822;-0.326;2022-12-16T04:05:08;-6.30;99.90
44565;DHT22;30275;51.822;-0.326;2022-12-16T04:07:34;-6.30;99.90
44565;DHT22;30275;51.822;-0.326;2022-12-16T04:10:00;-6.30;99.90
44565;DHT22;30275;51.822;-0.326;2022-12-16T04:12:25;-6.40;99.90
44565;DHT22;30275;51.822;-0.326;2022-12-16T04:15:11;-6.60;99.90
44565;DHT22;30275;51.822;-0.326;2022-12-16T04:18:14;-6.60;99.90
44565;DHT22;30275;51.822;-0.326;2022-12-16T04:20:59;-6.70;99.90
44565;DHT22;30275;51.822;-0.326;2022-12-16T04:23:54;-6.70;99.90
44565;DHT22;30275;51.822;-0.326;2022-12-16T04:26:40;-6.80;99.90
44565;DHT22;30275;51.822;-0.326;2022-12-16T04:29:24;-6.80;99.90
44565;DHT22;30275;51.822;-0.326;2022-12-16T04:31:51;-6.80;99.90
44565;DHT22;30275;51.822;-0.326;2022-12-16T04:34:17;-6.90;99.90
44565;DHT22;30275;51.822;-0.326;2022-12-16T04:37:02;-6.80;99.90
44565;DHT22;30275;51.822;-0.326;2022-12-16T04:39:46;-6.60;99.90
44565;DHT22;30275;51.822;-0.326;2022-12-16T04:42:31;-6.90;99.90
44565;DHT22;30275;51.822;-0.326;2022-12-16T04:45:16;-7.00;99.90
44565;DHT22;30275;51.822;-0.326;2022-12-16T04:48:00;-7.00;99.90
44565;DHT22;30275;51.822;-0.326;2022-12-16T04:50:45;-7.10;99.90
44565;DHT22;30275;51.822;-0.326;2022-12-16T04:53:29;-7.20;99.90
44565;DHT22;30275;51.822;-0.326;2022-12-16T04:56:14;-7.20;99.90
44565;DHT22;30275;51.822;-0.326;2022-12-16T04:58:58;-7.30;99.90
44565;DHT22;30275;51.822;-0.326;2022-12-16T05:01:43;-7.30;99.90
44565;DHT22;30275;51.822;-0.326;2022-12-16T05:04:27;-7.20;99.90
44565;DHT22;30275;51.822;-0.326;2022-12-16T05:07:11;-7.10;99.90
44565;DHT22;30275;51.822;-0.326;2022-12-16T05:09:55;-7.10;99.90
44565;DHT22;30275;51.822;-0.326;2022-12-16T05:12:40;-7.30;99.90
44565;DHT22;30275;51.822;-0.326;2022-12-16T05:15:24;-7.20;99.90
44565;DHT22;30275;51.822;-0.326;2022-12-16T05:18:10;-7.20;99.90
44565;DHT22;30275;51.822;-0.326;2022-12-16T05:20:57;-7.30;99.90
44565;DHT22;30275;51.822;-0.326;2022-12-16T05:23:41;-7.20;99.90
44565;DHT22;30275;51.822;-0.326;2022-12-16T05:26:25;-7.10;99.90
44565;DHT22;30275;51.822;-0.326;2022-12-16T05:29:09;-6.80;99.90
44565;DHT22;30275;51.822;-0.326;2022-12-16T05:31:53;-6.70;99.90
44565;DHT22;30275;51.822;-0.326;2022-12-16T05:34:37;-6.70;99.90
44565;DHT22;30275;51.822;-0.326;2022-12-16T05:37:22;-6.50;99.90
44565;DHT22;30275;51.822;-0.326;2022-12-16T05:40:08;-6.80;99.90
44565;DHT22;30275;51.822;-0.326;2022-12-16T05:42:53;-7.10;99.90
44565;DHT22;30275;51.822;-0.326;2022-12-16T05:45:38;-7.20;99.90
44565;DHT22;30275;51.822;-0.326;2022-12-16T05:48:22;-7.10;99.90
44565;DHT22;30275;51.822;-0.326;2022-12-16T05:51:07;-6.80;99.90
44565;DHT22;30275;51.822;-0.326;2022-12-16T05:53:51;-7.00;99.90
44565;DHT22;30275;51.822;-0.326;2022-12-16T05:56:35;-7.30;99.90
44565;DHT22;30275;51.822;-0.326;2022-12-16T05:59:39;-7.40;99.90
44565;DHT22;30275;51.822;-0.326;2022-12-16T06:02:27;-7.40;99.90
44565;DHT22;30275;51.822;-0.326;2022-12-16T06:05:11;-7.50;99.90
44565;DHT22;30275;51.822;-0.326;2022-12-16T06:07:56;-7.50;99.90
44565;DHT22;30275;51.822;-0.326;2022-12-16T06:10:40;-7.10;99.90
44565;DHT22;30275;51.822;-0.326;2022-12-16T06:13:24;-6.90;99.90
44565;DHT22;30275;51.822;-0.326;2022-12-16T06:16:08;-6.80;99.90
44565;DHT22;30275;51.822;-0.326;2022-12-16T06:18:52;-7.00;99.90
44565;DHT22;30275;51.822;-0.326;2022-12-16T06:21:36;-7.20;99.90
44565;DHT22;30275;51.822;-0.326;2022-12-16T06:24:20;-7.00;99.90
44565;DHT22;30275;51.822;-0.326;2022-12-16T06:27:05;-7.20;99.90
44565;DHT22;30275;51.822;-0.326;2022-12-16T06:29:49;-7.40;99.90
44565;DHT22;30275;51.822;-0.326;2022-12-16T06:32:33;-7.50;99.90
44565;DHT22;30275;51.822;-0.326;2022-12-16T06:35:17;-7.40;99.90
44565;DHT22;30275;51.822;-0.326;2022-12-16T06:38:01;-7.20;99.90
44565;DHT22;30275;51.822;-0.326;2022-12-16T06:40:45;-7.10;99.90
44565;DHT22;30275;51.822;-0.326;2022-12-16T06:43:29;-7.00;99.90
44565;DHT22;30275;51.822;-0.326;2022-12-16T06:46:13;-6.80;99.90
44565;DHT22;30275;51.822;-0.326;2022-12-16T06:48:57;-7.00;99.90
44565;DHT22;30275;51.822;-0.326;2022-12-16T06:51:41;-7.20;99.90
44565;DHT22;30275;51.822;-0.326;2022-12-16T06:54:26;-7.60;99.90
44565;DHT22;30275;51.822;-0.326;2022-12-16T06:57:10;-7.80;99.90
44565;DHT22;30275;51.822;-0.326;2022-12-16T06:59:54;-8.00;99.90
44565;DHT22;30275;51.822;-0.326;2022-12-16T07:02:38;-8.10;99.90
44565;DHT22;30275;51.822;-0.326;2022-12-16T07:05:22;-8.20;99.90
44565;DHT22;30275;51.822;-0.326;2022-12-16T07:08:06;-8.20;99.90
44565;DHT22;30275;51.822;-0.326;2022-12-16T07:10:50;-8.20;99.90
44565;DHT22;30275;51.822;-0.326;2022-12-16T07:13:34;-8.00;99.90
44565;DHT22;30275;51.822;-0.326;2022-12-16T07:16:18;-7.70;99.90
44565;DHT22;30275;51.822;-0.326;2022-12-16T07:19:02;-7.30;99.90
44565;DHT22;30275;51.822;-0.326;2022-12-16T07:21:46;-7.10;99.90
44565;DHT22;30275;51.822;-0.326;2022-12-16T07:24:30;-7.00;99.90
44565;DHT22;30275;51.822;-0.326;2022-12-16T07:27:14;-6.80;99.90
44565;DHT22;30275;51.822;-0.326;2022-12-16T07:29:58;-7.00;99.90
44565;DHT22;30275;51.822;-0.326;2022-12-16T07:32:43;-7.10;99.90
44565;DHT22;30275;51.822;-0.326;2022-12-16T07:35:27;-7.30;99.90
44565;DHT22;30275;51.822;-0.326;2022-12-16T07:38:11;-7.30;99.90
44565;DHT22;30275;51.822;-0.326;2022-12-16T07:40:55;-7.30;99.90
44565;DHT22;30275;51.822;-0.326;2022-12-16T07:43:39;-7.40;99.90
44565;DHT22;30275;51.822;-0.326;2022-12-16T07:46:23;-7.30;99.90
44565;DHT22;30275;51.822;-0.326;2022-12-16T07:49:07;-7.50;99.90
44565;DHT22;30275;51.822;-0.326;2022-12-16T07:51:51;-7.50;99.90
44565;DHT22;30275;51.822;-0.326;2022-12-16T07:54:35;-7.50;99.90
44565;DHT22;30275;51.822;-0.326;2022-12-16T07:57:19;-7.20;99.90
44565;DHT22;30275;51.822;-0.326;2022-12-16T08:00:04;-7.20;99.90
44565;DHT22;30275;51.822;-0.326;2022-12-16T08:02:55;-7.10;99.90
44565;DHT22;30275;51.822;-0.326;2022-12-16T08:05:39;-7.10;99.90
44565;DHT22;30275;51.822;-0.326;2022-12-16T08:08:23;-6.90;99.90
44565;DHT22;30275;51.822;-0.326;2022-12-16T08:11:07;-6.70;99.90
44565;DHT22;30275;51.822;-0.326;2022-12-16T08:13:51;-6.40;99.90
44565;DHT22;30275;51.822;-0.326;2022-12-16T08:16:35;-6.20;99.90
44565;DHT22;30275;51.822;-0.326;2022-12-16T08:19:19;-6.40;99.90
44565;DHT22;30275;51.822;-0.326;2022-12-16T08:22:03;-6.20;99.90
44565;DHT22;30275;51.822;-0.326;2022-12-16T08:24:48;-6.20;99.90
44565;DHT22;30275;51.822;-0.326;2022-12-16T08:27:32;-6.00;99.90
44565;DHT22;30275;51.822;-0.326;2022-12-16T08:30:16;-5.80;99.90
44565;DHT22;30275;51.822;-0.326;2022-12-16T08:33:00;-5.60;99.90
44565;DHT22;30275;51.822;-0.326;2022-12-16T08:35:44;-5.20;99.90
44565;DHT22;30275;51.822;-0.326;2022-12-16T08:38:28;-4.80;99.90
44565;DHT22;30275;51.822;-0.326;2022-12-16T08:41:12;-4.40;99.90
44565;DHT22;30275;51.822;-0.326;2022-12-16T08:43:56;-4.20;99.90
44565;DHT22;30275;51.822;-0.326;2022-12-16T08:46:40;-4.00;99.90
44565;DHT22;30275;51.822;-0.326;2022-12-16T08:49:25;-3.90;99.90
44565;DHT22;30275;51.822;-0.326;2022-12-16T08:52:09;-3.80;99.90
44565;DHT22;30275;51.822;-0.326;2022-12-16T08:54:53;-3.90;99.90
44565;DHT22;30275;51.822;-0.326;2022-12-16T08:57:37;-3.90;99.90
44565;DHT22;30275;51.822;-0.326;2022-12-16T09:00:21;-3.60;99.90
44565;DHT22;30275;51.822;-0.326;2022-12-16T09:03:05;-2.80;99.90
44565;DHT22;30275;51.822;-0.326;2022-12-16T09:05:49;-1.70;99.90
44565;DHT22;30275;51.822;-0.326;2022-12-16T09:08:33;-1.10;99.90
44565;DHT22;30275;51.822;-0.326;2022-12-16T09:11:17;-0.50;99.90
44565;DHT22;30275;51.822;-0.326;2022-12-16T09:14:01;0.00;99.90
44565;DHT22;30275;51.822;-0.326;2022-12-16T09:16:47;0.10;99.90
44565;DHT22;30275;51.822;-0.326;2022-12-16T09:19:31;0.10;99.90
44565;DHT22;30275;51.822;-0.326;2022-12-16T09:22:15;0.60;99.90
44565;DHT22;30275;51.822;-0.326;2022-12-16T09:24:59;1.30;99.90
44565;DHT22;30275;51.822;-0.326;2022-12-16T09:27:43;1.70;99.90
44565;DHT22;30275;51.822;-0.326;2022-12-16T09:30:27;2.20;99.90
44565;DHT22;30275;51.822;-0.326;2022-12-16T09:33:11;2.30;99.90
44565;DHT22;30275;51.822;-0.326;2022-12-16T09:35:55;2.50;99.90
44565;DHT22;30275;51.822;-0.326;2022-12-16T09:38:39;3.00;99.90
44565;DHT22;30275;51.822;-0.326;2022-12-16T09:50:16;7.20;95.60
44565;DHT22;30275;51.822;-0.326;2022-12-16T09:53:03;8.10;94.10
44565;DHT22;30275;51.822;-0.326;2022-12-16T09:55:48;8.90;92.50
44565;DHT22;30275;51.822;-0.326;2022-12-16T09:58:55;9.90;91.20
44565;DHT22;30275;51.822;-0.326;2022-12-16T10:01:42;10.70;89.90
44565;DHT22;30275;51.822;-0.326;2022-12-16T10:04:27;11.60;87.80
44565;DHT22;30275;51.822;-0.326;2022-12-16T10:07:17;11.60;85.50
44565;DHT22;30275;51.822;-0.326;2022-12-16T10:13:30;12.50;83.30
44565;DHT22;30275;51.822;-0.326;2022-12-16T10:25:22;13.40;81.00
44565;DHT22;30275;51.822;-0.326;2022-12-16T10:28:16;13.60;80.60
44565;DHT22;30275;51.822;-0.326;2022-12-16T10:31:02;13.60;80.70
44565;DHT22;30275;51.822;-0.326;2022-12-16T10:33:48;13.40;81.30
44565;DHT22;30275;51.822;-0.326;2022-12-16T10:36:35;13.30;81.40
44565;DHT22;30275;51.822;-0.326;2022-12-16T10:39:32;13.80;80.50
44565;DHT22;30275;51.822;-0.326;2022-12-16T10:42:22;13.80;80.90
44565;DHT22;30275;51.822;-0.326;2022-12-16T10:45:33;13.70;80.50
44565;DHT22;30275;51.822;-0.326;2022-12-16T10:48:26;13.20;81.60
44565;DHT22;30275;51.822;-0.326;2022-12-16T10:51:19;12.10;83.20
44565;DHT22;30275;51.822;-0.326;2022-12-16T10:54:35;11.20;86.20
44565;DHT22;30275;51.822;-0.326;2022-12-16T11:03:27;11.70;86.40
44565;DHT22;30275;51.822;-0.326;2022-12-16T11:06:16;11.50;86.50
44565;DHT22;30275;51.822;-0.326;2022-12-16T11:18:19;13.00;84.80
44565;DHT22;30275;51.822;-0.326;2022-12-16T11:24:15;13.10;83.60
44565;DHT22;30275;51.822;-0.326;2022-12-16T11:27:05;13.20;82.90
44565;DHT22;30275;51.822;-0.326;2022-12-16T11:29:56;12.70;83.70
44565;DHT22;30275;51.822;-0.326;2022-12-16T11:32:53;12.40;84.80
44565;DHT22;30275;51.822;-0.326;2022-12-16T11:35:45;11.60;86.20
44565;DHT22;30275;51.822;-0.326;2022-12-16T11:38:45;10.90;88.90
44565;DHT22;30275;51.822;-0.326;2022-12-16T11:41:46;11.00;89.90
44565;DHT22;30275;51.822;-0.326;2022-12-16T11:44:35;11.90;87.20
44565;DHT22;30275;51.822;-0.326;2022-12-16T11:47:30;12.60;85.50
44565;DHT22;30275;51.822;-0.326;2022-12-16T11:50:17;13.50;83.90
44565;DHT22;30275;51.822;-0.326;2022-12-16T11:53:05;14.50;82.20
44565;DHT22;30275;51.822;-0.326;2022-12-16T11:55:56;15.20;80.20
44565;DHT22;30275;51.822;-0.326;2022-12-16T11:58:52;15.30;79.60
44565;DHT22;30275;51.822;-0.326;2022-12-16T12:01:44;14.80;80.30
44565;DHT22;30275;51.822;-0.326;2022-12-16T12:04:32;14.00;81.60
44565;DHT22;30275;51.822;-0.326;2022-12-16T12:07:51;13.00;83.60
44565;DHT22;30275;51.822;-0.326;2022-12-16T12:10:47;12.80;84.60
44565;DHT22;30275;51.822;-0.326;2022-12-16T12:22:36;13.60;84.60
44565;DHT22;30275;51.822;-0.326;2022-12-16T12:38:04;14.40;82.50
44565;DHT22;30275;51.822;-0.326;2022-12-16T12:44:02;14.30;83.00
44565;DHT22;30275;51.822;-0.326;2022-12-16T12:47:01;14.40;82.20
44565;DHT22;30275;51.822;-0.326;2022-12-16T12:50:08;14.50;82.20
44565;DHT22;30275;51.822;-0.326;2022-12-16T12:58:57;14.70;82.30
44565;DHT22;30275;51.822;-0.326;2022-12-16T13:01:44;14.80;82.10
44565;DHT22;30275;51.822;-0.326;2022-12-16T13:04:32;14.60;82.00
44565;DHT22;30275;51.822;-0.326;2022-12-16T13:07:18;14.10;82.70
44565;DHT22;30275;51.822;-0.326;2022-12-16T13:16:01;9.60;91.60
44565;DHT22;30275;51.822;-0.326;2022-12-16T13:18:45;8.30;93.90
44565;DHT22;30275;51.822;-0.326;2022-12-16T13:24:44;6.50;98.20
44565;DHT22;30275;51.822;-0.326;2022-12-16T13:27:43;5.80;99.90
44565;DHT22;30275;51.822;-0.326;2022-12-16T13:30:29;5.40;99.90
44565;DHT22;30275;51.822;-0.326;2022-12-16T13:33:34;4.90;99.90
44565;DHT22;30275;51.822;-0.326;2022-12-16T13:36:19;4.40;99.90
44565;DHT22;30275;51.822;-0.326;2022-12-16T13:39:23;4.40;99.90
44565;DHT22;30275;51.822;-0.326;2022-12-16T13:42:31;4.20;99.90
44565;DHT22;30275;51.822;-0.326;2022-12-16T13:45:43;4.20;99.90
44565;DHT22;30275;51.822;-0.326;2022-12-16T13:48:47;4.20;99.90
44565;DHT22;30275;51.822;-0.326;2022-12-16T13:54:31;4.20;99.90
44565;DHT22;30275;51.822;-0.326;2022-12-16T13:57:19;4.10;99.90
44565;DHT22;30275;51.822;-0.326;2022-12-16T14:00:19;4.10;99.90
44565;DHT22;30275;51.822;-0.326;2022-12-16T14:03:14;4.00;99.90
44565;DHT22;30275;51.822;-0.326;2022-12-16T14:06:03;4.10;99.90
44565;DHT22;30275;51.822;-0.326;2022-12-16T14:08:48;3.90;99.90
44565;DHT22;30275;51.822;-0.326;2022-12-16T14:11:52;3.70;99.90
44565;DHT22;30275;51.822;-0.326;2022-12-16T14:14:56;3.70;99.90
44565;DHT22;30275;51.822;-0.326;2022-12-16T14:17:48;3.50;99.90
44565;DHT22;30275;51.822;-0.326;2022-12-16T14:20:46;3.40;99.90
44565;DHT22;30275;51.822;-0.326;2022-12-16T14:26:35;3.70;99.90
44565;DHT22;30275;51.822;-0.326;2022-12-16T14:29:26;3.80;99.90
44565;DHT22;30275;51.822;-0.326;2022-12-16T14:32:31;3.70;99.90
44565;DHT22;30275;51.822;-0.326;2022-12-16T14:35:25;3.70;99.90
44565;DHT22;30275;51.822;-0.326;2022-12-16T14:40:56;2.90;99.90
44565;DHT22;30275;51.822;-0.326;2022-12-16T14:43:42;2.50;99.90
44565;DHT22;30275;51.822;-0.326;2022-12-16T14:46:27;2.60;99.90
44565;DHT22;30275;51.822;-0.326;2022-12-16T14:52:21;2.00;99.90
44565;DHT22;30275;51.822;-0.326;2022-12-16T14:55:17;1.80;99.90
44565;DHT22;30275;51.822;-0.326;2022-12-16T14:58:16;1.40;99.90
44565;DHT22;30275;51.822;-0.326;2022-12-16T15:01:25;1.30;99.90
44565;DHT22;30275;51.822;-0.326;2022-12-16T15:04:19;1.30;99.90
44565;DHT22;30275;51.822;-0.326;2022-12-16T15:07:06;0.90;99.90
44565;DHT22;30275;51.822;-0.326;2022-12-16T15:09:55;0.70;99.90
44565;DHT22;30275;51.822;-0.326;2022-12-16T15:12:45;0.50;99.90
44565;DHT22;30275;51.822;-0.326;2022-12-16T15:15:37;0.50;99.90
44565;DHT22;30275;51.822;-0.326;2022-12-16T15:21:14;0.10;99.90
44565;DHT22;30275;51.822;-0.326;2022-12-16T15:23:58;-0.20;99.90
44565;DHT22;30275;51.822;-0.326;2022-12-16T15:26:42;-0.20;99.90
44565;DHT22;30275;51.822;-0.326;2022-12-16T15:29:33;-0.50;99.90
44565;DHT22;30275;51.822;-0.326;2022-12-16T15:38:29;-1.30;99.90
44565;DHT22;30275;51.822;-0.326;2022-12-16T15:41:34;-1.50;99.90
44565;DHT22;30275;51.822;-0.326;2022-12-16T15:44:22;-1.50;99.90
44565;DHT22;30275;51.822;-0.326;2022-12-16T15:47:27;-1.70;99.90
44565;DHT22;30275;51.822;-0.326;2022-12-16T15:50:15;-1.80;99.90
44565;DHT22;30275;51.822;-0.326;2022-12-16T15:56:22;-2.20;99.90
44565;DHT22;30275;51.822;-0.326;2022-12-16T15:59:30;-2.60;99.90
44565;DHT22;30275;51.822;-0.326;2022-12-16T16:02:28;-2.80;99.90
44565;DHT22;30275;51.822;-0.326;2022-12-16T16:05:19;-2.90;99.90
44565;DHT22;30275;51.822;-0.326;2022-12-16T16:08:04;-3.00;99.90
44565;DHT22;30275;51.822;-0.326;2022-12-16T16:10:48;-3.20;99.90
44565;DHT22;30275;51.822;-0.326;2022-12-16T16:13:32;-3.60;99.90
44565;DHT22;30275;51.822;-0.326;2022-12-16T16:16:16;-4.00;99.90
44565;DHT22;30275;51.822;-0.326;2022-12-16T16:19:01;-4.20;99.90
44565;DHT22;30275;51.822;-0.326;2022-12-16T16:21:45;-4.10;99.90
44565;DHT22;30275;51.822;-0.326;2022-12-16T16:24:30;-3.90;99.90
44565;DHT22;30275;51.822;-0.326;2022-12-16T16:27:14;-3.80;99.90
44565;DHT22;30275;51.822;-0.326;2022-12-16T16:30:00;-3.80;99.90
44565;DHT22;30275;51.822;-0.326;2022-12-16T16:32:44;-4.10;99.90
44565;DHT22;30275;51.822;-0.326;2022-12-16T16:35:30;-4.30;99.90
44565;DHT22;30275;51.822;-0.326;2022-12-16T16:38:15;-4.20;99.90
44565;DHT22;30275;51.822;-0.326;2022-12-16T16:41:00;-4.00;99.90
44565;DHT22;30275;51.822;-0.326;2022-12-16T16:43:44;-3.80;99.90
44565;DHT22;30275;51.822;-0.326;2022-12-16T16:46:36;-3.40;99.90
44565;DHT22;30275;51.822;-0.326;2022-12-16T16:49:28;-3.50;99.90
44565;DHT22;30275;51.822;-0.326;2022-12-16T16:52:16;-3.70;99.90
44565;DHT22;30275;51.822;-0.326;2022-12-16T16:55:01;-4.20;99.90
44565;DHT22;30275;51.822;-0.326;2022-12-16T16:57:45;-4.30;99.90
44565;DHT22;30275;51.822;-0.326;2022-12-16T17:00:29;-4.30;99.90
44565;DHT22;30275;51.822;-0.326;2022-12-16T17:03:13;-4.40;99.90
44565;DHT22;30275;51.822;-0.326;2022-12-16T17:05:58;-4.20;99.90
44565;DHT22;30275;51.822;-0.326;2022-12-16T17:08:42;-3.90;99.90
44565;DHT22;30275;51.822;-0.326;2022-12-16T17:11:26;-3.80;99.90
44565;DHT22;30275;51.822;-0.326;2022-12-16T17:14:13;-3.70;99.90
44565;DHT22;30275;51.822;-0.326;2022-12-16T17:16:57;-4.00;99.90
44565;DHT22;30275;51.822;-0.326;2022-12-16T17:19:42;-4.40;99.90
44565;DHT22;30275;51.822;-0.326;2022-12-16T17:22:26;-5.00;99.90
44565;DHT22;30275;51.822;-0.326;2022-12-16T17:25:10;-5.10;99.90
44565;DHT22;30275;51.822;-0.326;2022-12-16T17:27:55;-4.80;99.90
44565;DHT22;30275;51.822;-0.326;2022-12-16T17:30:39;-4.50;99.90
44565;DHT22;30275;51.822;-0.326;2022-12-16T17:33:23;-4.20;99.90
44565;DHT22;30275;51.822;-0.326;2022-12-16T17:36:11;-4.50;99.90
44565;DHT22;30275;51.822;-0.326;2022-12-16T17:38:56;-5.00;99.90
44565;DHT22;30275;51.822;-0.326;2022-12-16T17:41:40;-5.40;99.90
44565;DHT22;30275;51.822;-0.326;2022-12-16T17:44:25;-5.40;99.90
44565;DHT22;30275;51.822;-0.326;2022-12-16T17:47:09;-5.50;99.90
44565;DHT22;30275;51.822;-0.326;2022-12-16T17:49:53;-5.60;99.90
44565;DHT22;30275;51.822;-0.326;2022-12-16T17:52:37;-5.60;99.90
44565;DHT22;30275;51.822;-0.326;2022-12-16T17:55:21;-5.60;99.90
44565;DHT22;30275;51.822;-0.326;2022-12-16T17:58:05;-5.90;99.90
44565;DHT22;30275;51.822;-0.326;2022-12-16T18:00:49;-5.90;99.90
44565;DHT22;30275;51.822;-0.326;2022-12-16T18:03:33;-5.90;99.90
44565;DHT22;30275;51.822;-0.326;2022-12-16T18:06:18;-5.90;99.90
44565;DHT22;30275;51.822;-0.326;2022-12-16T18:09:21;-6.00;99.90
44565;DHT22;30275;51.822;-0.326;2022-12-16T18:12:05;-5.90;99.90
44565;DHT22;30275;51.822;-0.326;2022-12-16T18:14:50;-5.90;99.90
44565;DHT22;30275;51.822;-0.326;2022-12-16T18:17:34;-5.90;99.90
44565;DHT22;30275;51.822;-0.326;2022-12-16T18:20:18;-5.80;99.90
44565;DHT22;30275;51.822;-0.326;2022-12-16T18:23:13;-5.90;99.90
44565;DHT22;30275;51.822;-0.326;2022-12-16T18:26:02;-5.90;99.90
44565;DHT22;30275;51.822;-0.326;2022-12-16T18:28:47;-5.90;99.90
44565;DHT22;30275;51.822;-0.326;2022-12-16T18:31:31;-6.00;99.90
44565;DHT22;30275;51.822;-0.326;2022-12-16T18:34:15;-6.00;99.90
44565;DHT22;30275;51.822;-0.326;2022-12-16T18:37:13;-6.00;99.90
44565;DHT22;30275;51.822;-0.326;2022-12-16T18:39:58;-6.10;99.90
44565;DHT22;30275;51.822;-0.326;2022-12-16T18:42:42;-6.10;99.90
44565;DHT22;30275;51.822;-0.326;2022-12-16T18:45:26;-6.10;99.90
44565;DHT22;30275;51.822;-0.326;2022-12-16T18:48:10;-6.10;99.90
44565;DHT22;30275;51.822;-0.326;2022-12-16T18:50:56;-6.10;99.90
44565;DHT22;30275;51.822;-0.326;2022-12-16T18:53:41;-6.20;99.90
44565;DHT22;30275;51.822;-0.326;2022-12-16T18:56:25;-6.30;99.90
44565;DHT22;30275;51.822;-0.326;2022-12-16T18:59:09;-6.20;99.90
44565;DHT22;30275;51.822;-0.326;2022-12-16T19:01:53;-6.20;99.90
44565;DHT22;30275;51.822;-0.326;2022-12-16T19:04:37;-6.20;99.90
44565;DHT22;30275;51.822;-0.326;2022-12-16T19:07:21;-6.20;99.90
44565;DHT22;30275;51.822;-0.326;2022-12-16T19:10:06;-6.30;99.90